Terminal Aerodrome Forecast
Issued by NWS

Home | Current Version | Previous Version | Text Only | Print | Product List | Glossary On
Versions: 1 2 3 4 5 6 7 8 9 10 11 12 13 14
000
FTUS41 KBOX 230249 AAC
TAFBED
TAF AMD
KBED 230249Z 2303/2324 VRB04KT 3SM BR VCSH OVC005
     FM230700 00000KT 1SM BR OVC010
     FM231300 35004KT P6SM SCT200
     FM231900 04004KT P6SM BKN200=

USA.gov is the U.S. government's official web portal to all federal, state and local government web resources and services.